KJAS

Jasper County-Bell Field Airport

Jasper, Texas, USA
METAR KJAS 170555Z AUTO 26015G28KT 1 1/2SM +RA SCT006 OVC013 12/11 A3009 RMK AO2 P0029 T01240106
Observed Flight Rules
Dec-17 @ 05:55 UTC (25 minutes ago) Instrument Flight Rules
Wind Visibility Clouds Conditions
260° at 15 knots
 Gusting to 28 knots
1 1/2 miles
  • Scattered at 600' AGL
  • Overcast at 1,300' AGL
  • Heavy Rain
Temperatures Readings Precipitation
Current 12°C / 54°F
Dewpoint 11°C / 52°F
Humidity 94%
Altimeter 30.09" Hg
Pressure 1019 hPa
Elevation 65
Current Rain 0.29
METAR KJAS 170555Z AUTO 26015G28KT 1 1/2SM +RA SCT006 OVC013 12/11 A3009 RMK AO2 P0029 T01240106
Observed Flight Rules
Dec-17 @ 05:55 UTC
(25 minutes ago)
IFR
Wind Visibility
260° at 15 knots
 Gusting to 28 knots
1 1/2 miles
Clouds
  • Scattered at 600' AGL
  • Overcast at 1,300' AGL
Conditions
  • Heavy Rain
Temperature Dewpoint
12°C / 54°F 11°C / 52°F
Humidity Altimeter Pressure
94% 30.09" Hg 1019 hPa
Current Rain
0.29